Terminal Aerodrome Forecast
Issued by NWS Duluth, MN

Home | Current Version | Previous Version | Text Only | Print | Product List | Glossary On
Versions: 1 2 3 4 5 6 7 8 9 10 11 12 13 14 15 16 17 18 19 20 21 22
000
FTUS43 KDLH 212055 AAB
TAFDLH
TAF AMD
KDLH 212055Z 2121/2218 08013KT 4SM -DZ BR OVC002
     FM212300 06005KT 1/4SM -DZ FG VV002
     FM220200 04006KT 1/4SM -DZ FG OVC002
     FM220900 35003KT 2SM -DZ BR OVC007
     FM221600 34004KT 3SM BR OVC010=

USA.gov is the U.S. government's official web portal to all federal, state and local government web resources and services.